A4000 KRND-KDLF
Flight info
| Callsign | A4000 |
|---|---|
| Flight time | 0h 41m |
| Altitude | 36000 |
| Route | KRND CSI KDLF |
| Aircraft | T38 |
Departure
| Time | 2026-05-04 01:02 |
|---|---|
| Airport | Randolph Air Force Base (KRND) |
Arrival
| Time | 2026-05-04 01:43 |
|---|---|
| Airport | Laughlin Air Force Base (KDLF) |
| Time | Latitude | Longitude | Altitude | Speed | Heading |
|---|---|---|---|---|---|
| 2026-05-04 00:42 | 29.53460 | -98.28942 | 766 ft | 0 kts | 0° |
| 2026-05-04 00:45 | 29.53461 | -98.28942 | 766 ft | 0 kts | 0° |
| 2026-05-04 00:48 | 29.53464 | -98.28942 | 766 ft | 2 kts | 354° |
| 2026-05-04 00:48 | 29.53482 | -98.28955 | 766 ft | 4 kts | 287° |
| 2026-05-04 00:48 | 29.53482 | -98.29001 | 766 ft | 7 kts | 245° |
| 2026-05-04 00:49 | 29.53444 | -98.29008 | 766 ft | 7 kts | 143° |
| 2026-05-04 00:49 | 29.53396 | -98.28974 | 766 ft | 9 kts | 149° |
| 2026-05-04 00:49 | 29.53338 | -98.28934 | 766 ft | 10 kts | 149° |
| 2026-05-04 00:49 | 29.53275 | -98.28892 | 766 ft | 11 kts | 158° |
| 2026-05-04 00:50 | 29.53203 | -98.28856 | 766 ft | 12 kts | 155° |
| 2026-05-04 00:50 | 29.53129 | -98.28814 | 766 ft | 12 kts | 150° |
| 2026-05-04 00:50 | 29.53055 | -98.28765 | 766 ft | 13 kts | 150° |
| 2026-05-04 00:50 | 29.52978 | -98.28714 | 766 ft | 13 kts | 150° |
| 2026-05-04 00:51 | 29.52899 | -98.28661 | 766 ft | 13 kts | 149° |
| 2026-05-04 00:51 | 29.52818 | -98.28607 | 766 ft | 14 kts | 149° |
| 2026-05-04 00:51 | 29.52735 | -98.28551 | 766 ft | 14 kts | 149° |
| 2026-05-04 00:51 | 29.52650 | -98.28493 | 766 ft | 14 kts | 149° |
| 2026-05-04 00:52 | 29.52565 | -98.28436 | 766 ft | 14 kts | 154° |
| 2026-05-04 00:52 | 29.52469 | -98.28404 | 766 ft | 14 kts | 164° |
| 2026-05-04 00:52 | 29.52373 | -98.28371 | 766 ft | 14 kts | 157° |
| 2026-05-04 00:52 | 29.52287 | -98.28312 | 766 ft | 15 kts | 146° |
| 2026-05-04 00:53 | 29.52241 | -98.28222 | 766 ft | 13 kts | 111° |
| 2026-05-04 00:53 | 29.52211 | -98.28120 | 766 ft | 14 kts | 106° |
| 2026-05-04 00:53 | 29.52185 | -98.28014 | 766 ft | 14 kts | 106° |
| 2026-05-04 00:53 | 29.52180 | -98.27906 | 766 ft | 14 kts | 71° |
| 2026-05-04 00:54 | 29.52208 | -98.27801 | 766 ft | 14 kts | 73° |
| 2026-05-04 00:54 | 29.52237 | -98.27693 | 766 ft | 14 kts | 73° |
| 2026-05-04 00:54 | 29.52266 | -98.27585 | 766 ft | 14 kts | 72° |
| 2026-05-04 00:54 | 29.52296 | -98.27474 | 766 ft | 15 kts | 72° |
| 2026-05-04 00:55 | 29.52342 | -98.27370 | 766 ft | 15 kts | 56° |
| 2026-05-04 00:55 | 29.52399 | -98.27273 | 766 ft | 15 kts | 56° |
| 2026-05-04 00:55 | 29.52461 | -98.27178 | 766 ft | 15 kts | 43° |
| 2026-05-04 00:55 | 29.52536 | -98.27097 | 766 ft | 15 kts | 43° |
| 2026-05-04 00:56 | 29.52618 | -98.27024 | 766 ft | 15 kts | 18° |
| 2026-05-04 00:56 | 29.52714 | -98.26992 | 766 ft | 14 kts | 15° |
| 2026-05-04 00:56 | 29.52808 | -98.26955 | 766 ft | 14 kts | 16° |
| 2026-05-04 00:56 | 29.52904 | -98.26923 | 766 ft | 15 kts | 16° |
| 2026-05-04 00:57 | 29.53000 | -98.26918 | 766 ft | 14 kts | 326° |
| 2026-05-04 00:57 | 29.53084 | -98.26972 | 766 ft | 14 kts | 330° |
| 2026-05-04 00:57 | 29.53169 | -98.27027 | 766 ft | 14 kts | 330° |
| 2026-05-04 00:57 | 29.53256 | -98.27083 | 766 ft | 14 kts | 330° |
| 2026-05-04 00:58 | 29.53345 | -98.27141 | 766 ft | 15 kts | 330° |
| 2026-05-04 00:58 | 29.53434 | -98.27199 | 766 ft | 15 kts | 330° |
| 2026-05-04 00:58 | 29.53524 | -98.27258 | 766 ft | 15 kts | 330° |
| 2026-05-04 00:58 | 29.53615 | -98.27318 | 766 ft | 15 kts | 330° |
| 2026-05-04 00:59 | 29.53707 | -98.27379 | 766 ft | 15 kts | 330° |
| 2026-05-04 00:59 | 29.53798 | -98.27439 | 766 ft | 15 kts | 330° |
| 2026-05-04 00:59 | 29.53891 | -98.27501 | 766 ft | 15 kts | 329° |
| 2026-05-04 00:59 | 29.53976 | -98.27559 | 766 ft | 16 kts | 329° |
| 2026-05-04 01:00 | 29.54076 | -98.27625 | 766 ft | 16 kts | 329° |
| 2026-05-04 01:00 | 29.54171 | -98.27659 | 766 ft | 14 kts | 20° |
| 2026-05-04 01:00 | 29.54250 | -98.27611 | 766 ft | 11 kts | 77° |
| 2026-05-04 01:00 | 29.54239 | -98.27567 | 766 ft | 2 kts | 154° |
| 2026-05-04 01:01 | 29.54233 | -98.27564 | 766 ft | 0 kts | 150° |
| 2026-05-04 01:01 | 29.54233 | -98.27563 | 766 ft | 0 kts | 150° |
| 2026-05-04 01:01 | 29.54144 | -98.27505 | 766 ft | 68 kts | 150° |
| 2026-05-04 01:01 | 29.53272 | -98.26927 | 781 ft | 208 kts | 150° |
| 2026-05-04 01:02 | 29.51934 | -98.25818 | 1364 ft | 243 kts | 135° |
| 2026-05-04 01:02 | 29.51280 | -98.24263 | 1899 ft | 226 kts | 98° |
| 2026-05-04 01:02 | 29.51567 | -98.22560 | 2564 ft | 214 kts | 60° |
| 2026-05-04 01:02 | 29.52724 | -98.21471 | 3274 ft | 219 kts | 22° |
| 2026-05-04 01:03 | 29.54262 | -98.21384 | 3986 ft | 235 kts | 345° |
| 2026-05-04 01:03 | 29.55763 | -98.22164 | 4982 ft | 236 kts | 333° |
| 2026-05-04 01:03 | 29.57256 | -98.23025 | 5934 ft | 243 kts | 331° |
| 2026-05-04 01:03 | 29.58789 | -98.23936 | 6870 ft | 255 kts | 328° |
| 2026-05-04 01:04 | 29.60375 | -98.24911 | 7802 ft | 259 kts | 328° |
| 2026-05-04 01:04 | 29.61977 | -98.25903 | 8740 ft | 264 kts | 328° |
| 2026-05-04 01:04 | 29.63594 | -98.26937 | 9695 ft | 267 kts | 327° |
| 2026-05-04 01:04 | 29.65234 | -98.27997 | 10652 ft | 276 kts | 327° |
| 2026-05-04 01:05 | 29.66955 | -98.29115 | 11631 ft | 289 kts | 326° |
| 2026-05-04 01:05 | 29.68721 | -98.30306 | 12591 ft | 300 kts | 326° |
| 2026-05-04 01:05 | 29.70531 | -98.31538 | 13488 ft | 311 kts | 326° |
| 2026-05-04 01:05 | 29.72426 | -98.32831 | 14368 ft | 322 kts | 326° |
| 2026-05-04 01:06 | 29.74390 | -98.34172 | 15236 ft | 332 kts | 326° |
| 2026-05-04 01:06 | 29.75729 | -98.35089 | 15805 ft | 339 kts | 326° |
| 2026-05-04 01:06 | 29.77788 | -98.36504 | 16658 ft | 350 kts | 326° |
| 2026-05-04 01:06 | 29.79911 | -98.37961 | 17487 ft | 361 kts | 326° |
| 2026-05-04 01:07 | 29.82815 | -98.39963 | 18582 ft | 372 kts | 326° |
| 2026-05-04 01:07 | 29.84363 | -98.40927 | 19096 ft | 377 kts | 334° |
| 2026-05-04 01:07 | 29.86930 | -98.41504 | 19812 ft | 389 kts | 354° |
| 2026-05-04 01:07 | 29.89674 | -98.41384 | 20561 ft | 401 kts | 0° |
| 2026-05-04 01:08 | 29.92477 | -98.41099 | 21214 ft | 403 kts | 2° |
| 2026-05-04 01:08 | 29.95258 | -98.40786 | 21854 ft | 403 kts | 2° |
| 2026-05-04 01:08 | 29.98101 | -98.40438 | 22487 ft | 418 kts | 3° |
| 2026-05-04 01:08 | 30.00985 | -98.40063 | 23118 ft | 409 kts | 3° |
| 2026-05-04 01:09 | 30.03741 | -98.39214 | 23740 ft | 421 kts | 22° |
| 2026-05-04 01:09 | 30.06163 | -98.37192 | 24390 ft | 443 kts | 43° |
| 2026-05-04 01:09 | 30.07901 | -98.34209 | 25056 ft | 454 kts | 64° |
| 2026-05-04 01:09 | 30.08791 | -98.30765 | 25758 ft | 442 kts | 77° |
| 2026-05-04 01:10 | 30.09347 | -98.27292 | 26450 ft | 449 kts | 79° |
| 2026-05-04 01:10 | 30.09657 | -98.23661 | 27059 ft | 461 kts | 92° |
| 2026-05-04 01:10 | 30.08961 | -98.20027 | 27652 ft | 469 kts | 113° |
| 2026-05-04 01:10 | 30.07248 | -98.16831 | 28266 ft | 467 kts | 133° |
| 2026-05-04 01:11 | 30.04754 | -98.14506 | 28879 ft | 458 kts | 153° |
| 2026-05-04 01:11 | 30.01780 | -98.13305 | 29471 ft | 452 kts | 173° |
| 2026-05-04 01:11 | 29.98660 | -98.13347 | 30065 ft | 448 kts | 193° |
| 2026-05-04 01:11 | 29.95770 | -98.14614 | 30650 ft | 445 kts | 213° |
| 2026-05-04 01:12 | 29.93457 | -98.16944 | 31219 ft | 442 kts | 233° |
| 2026-05-04 01:12 | 29.91888 | -98.19928 | 31833 ft | 441 kts | 243° |
| 2026-05-04 01:12 | 29.90369 | -98.23015 | 32443 ft | 444 kts | 239° |
| 2026-05-04 01:12 | 29.88558 | -98.25902 | 33014 ft | 447 kts | 233° |
| 2026-05-04 01:13 | 29.86447 | -98.28543 | 33584 ft | 449 kts | 226° |
| 2026-05-04 01:13 | 29.84117 | -98.30957 | 34108 ft | 451 kts | 222° |
| 2026-05-04 01:13 | 29.81649 | -98.33187 | 34572 ft | 452 kts | 219° |
| 2026-05-04 01:13 | 29.79089 | -98.35300 | 35023 ft | 453 kts | 217° |
| 2026-05-04 01:14 | 29.76763 | -98.37115 | 35425 ft | 452 kts | 216° |
| 2026-05-04 01:14 | 29.74001 | -98.39200 | 35873 ft | 452 kts | 215° |
| 2026-05-04 01:14 | 29.71332 | -98.41165 | 35983 ft | 458 kts | 216° |
| 2026-05-04 01:14 | 29.69003 | -98.43576 | 35959 ft | 457 kts | 233° |
| 2026-05-04 01:15 | 29.67518 | -98.46768 | 35977 ft | 454 kts | 252° |
| 2026-05-04 01:15 | 29.67072 | -98.50352 | 35983 ft | 454 kts | 271° |
| 2026-05-04 01:15 | 29.67636 | -98.53921 | 36008 ft | 456 kts | 285° |
| 2026-05-04 01:16 | 29.69873 | -98.60773 | 36004 ft | 458 kts | 291° |
| 2026-05-04 01:16 | 29.72389 | -98.67530 | 36000 ft | 459 kts | 292° |
| 2026-05-04 01:17 | 29.74921 | -98.74269 | 36000 ft | 459 kts | 292° |
| 2026-05-04 01:17 | 29.77439 | -98.80979 | 36001 ft | 459 kts | 292° |
| 2026-05-04 01:18 | 29.79932 | -98.87750 | 36000 ft | 458 kts | 291° |
| 2026-05-04 01:18 | 29.82309 | -98.94558 | 36001 ft | 458 kts | 291° |
| 2026-05-04 01:19 | 29.84736 | -99.01358 | 36000 ft | 459 kts | 291° |
| 2026-05-04 01:19 | 29.87253 | -99.08064 | 36000 ft | 459 kts | 292° |
| 2026-05-04 01:20 | 29.89807 | -99.14808 | 36000 ft | 459 kts | 292° |
| 2026-05-04 01:20 | 29.92143 | -99.21635 | 35970 ft | 458 kts | 281° |
| 2026-05-04 01:21 | 29.92545 | -99.28930 | 36006 ft | 457 kts | 270° |
| 2026-05-04 01:21 | 29.92501 | -99.36269 | 36000 ft | 457 kts | 269° |
| 2026-05-04 01:22 | 29.92505 | -99.43559 | 35999 ft | 457 kts | 270° |
| 2026-05-04 01:22 | 29.92571 | -99.50893 | 36000 ft | 457 kts | 270° |
| 2026-05-04 01:23 | 29.92647 | -99.58234 | 36000 ft | 457 kts | 270° |
| 2026-05-04 01:23 | 29.92722 | -99.65565 | 36000 ft | 457 kts | 270° |
| 2026-05-04 01:24 | 29.92804 | -99.72898 | 35893 ft | 459 kts | 271° |
| 2026-05-04 01:24 | 29.92836 | -99.76646 | 34864 ft | 475 kts | 270° |
| 2026-05-04 01:24 | 29.92830 | -99.80469 | 33930 ft | 478 kts | 270° |
| 2026-05-04 01:24 | 29.92815 | -99.84193 | 32990 ft | 458 kts | 270° |
| 2026-05-04 01:25 | 29.92801 | -99.87862 | 32060 ft | 459 kts | 270° |
| 2026-05-04 01:25 | 29.92820 | -99.91528 | 31112 ft | 451 kts | 270° |
| 2026-05-04 01:25 | 29.92862 | -99.95113 | 30172 ft | 444 kts | 271° |
| 2026-05-04 01:25 | 29.92909 | -99.98646 | 29232 ft | 436 kts | 271° |
| 2026-05-04 01:26 | 29.92930 | -100.02117 | 28297 ft | 430 kts | 270° |
| 2026-05-04 01:26 | 29.92815 | -100.04264 | 27647 ft | 426 kts | 262° |
| 2026-05-04 01:26 | 29.91913 | -100.07140 | 27068 ft | 417 kts | 242° |
| 2026-05-04 01:26 | 29.90128 | -100.10043 | 26207 ft | 428 kts | 232° |
| 2026-05-04 01:27 | 29.88217 | -100.12556 | 25216 ft | 410 kts | 230° |
| 2026-05-04 01:27 | 29.86292 | -100.14999 | 24217 ft | 410 kts | 230° |
| 2026-05-04 01:27 | 29.84393 | -100.17397 | 23215 ft | 401 kts | 230° |
| 2026-05-04 01:27 | 29.82523 | -100.19750 | 22214 ft | 396 kts | 230° |
| 2026-05-04 01:28 | 29.80680 | -100.22073 | 21211 ft | 389 kts | 230° |
| 2026-05-04 01:28 | 29.78864 | -100.24359 | 20207 ft | 383 kts | 230° |
| 2026-05-04 01:28 | 29.77131 | -100.26536 | 19235 ft | 377 kts | 230° |
| 2026-05-04 01:28 | 29.75319 | -100.28810 | 18202 ft | 371 kts | 230° |
| 2026-05-04 01:29 | 29.73588 | -100.30987 | 17208 ft | 365 kts | 230° |
| 2026-05-04 01:29 | 29.71905 | -100.33105 | 16258 ft | 361 kts | 230° |
| 2026-05-04 01:29 | 29.70227 | -100.35214 | 15329 ft | 355 kts | 230° |
| 2026-05-04 01:29 | 29.68566 | -100.37302 | 14426 ft | 351 kts | 230° |
| 2026-05-04 01:30 | 29.66930 | -100.39362 | 13550 ft | 347 kts | 230° |
| 2026-05-04 01:30 | 29.65317 | -100.41393 | 12698 ft | 342 kts | 230° |
| 2026-05-04 01:30 | 29.63698 | -100.43376 | 11871 ft | 338 kts | 229° |
| 2026-05-04 01:30 | 29.62091 | -100.45327 | 11063 ft | 334 kts | 229° |
| 2026-05-04 01:31 | 29.60676 | -100.47034 | 10628 ft | 279 kts | 230° |
| 2026-05-04 01:31 | 29.59339 | -100.48691 | 10349 ft | 286 kts | 230° |
| 2026-05-04 01:31 | 29.58027 | -100.50322 | 10052 ft | 283 kts | 230° |
| 2026-05-04 01:31 | 29.56792 | -100.51844 | 9733 ft | 258 kts | 230° |
| 2026-05-04 01:32 | 29.55553 | -100.53376 | 9440 ft | 255 kts | 230° |
| 2026-05-04 01:32 | 29.54364 | -100.54840 | 9130 ft | 248 kts | 230° |
| 2026-05-04 01:32 | 29.53190 | -100.56286 | 8837 ft | 251 kts | 230° |
| 2026-05-04 01:32 | 29.52341 | -100.57982 | 8410 ft | 245 kts | 256° |
| 2026-05-04 01:33 | 29.52334 | -100.59892 | 8073 ft | 238 kts | 277° |
| 2026-05-04 01:33 | 29.52594 | -100.61781 | 7853 ft | 240 kts | 278° |
| 2026-05-04 01:33 | 29.52847 | -100.63650 | 7564 ft | 234 kts | 278° |
| 2026-05-04 01:33 | 29.53339 | -100.65424 | 7212 ft | 236 kts | 292° |
| 2026-05-04 01:34 | 29.54053 | -100.67096 | 6938 ft | 229 kts | 294° |
| 2026-05-04 01:34 | 29.54677 | -100.68766 | 6638 ft | 227 kts | 289° |
| 2026-05-04 01:34 | 29.55208 | -100.70479 | 6339 ft | 227 kts | 287° |
| 2026-05-04 01:34 | 29.55593 | -100.72229 | 6051 ft | 223 kts | 283° |
| 2026-05-04 01:35 | 29.55867 | -100.73929 | 5998 ft | 211 kts | 278° |
| 2026-05-04 01:35 | 29.56016 | -100.75628 | 6015 ft | 217 kts | 276° |
| 2026-05-04 01:35 | 29.56061 | -100.77318 | 5992 ft | 212 kts | 270° |
| 2026-05-04 01:35 | 29.56005 | -100.78988 | 6001 ft | 208 kts | 269° |
| 2026-05-04 01:36 | 29.55838 | -100.80661 | 6001 ft | 211 kts | 263° |
| 2026-05-04 01:36 | 29.55562 | -100.82306 | 5989 ft | 210 kts | 259° |
| 2026-05-04 01:36 | 29.55178 | -100.83968 | 5759 ft | 217 kts | 255° |
| 2026-05-04 01:36 | 29.54673 | -100.85590 | 5507 ft | 215 kts | 250° |
| 2026-05-04 01:37 | 29.54041 | -100.87111 | 5282 ft | 209 kts | 246° |
| 2026-05-04 01:37 | 29.53299 | -100.88616 | 5001 ft | 208 kts | 234° |
| 2026-05-04 01:37 | 29.52124 | -100.89593 | 4693 ft | 219 kts | 203° |
| 2026-05-04 01:37 | 29.50653 | -100.89782 | 4496 ft | 214 kts | 176° |
| 2026-05-04 01:38 | 29.49235 | -100.89352 | 4296 ft | 210 kts | 163° |
| 2026-05-04 01:38 | 29.47845 | -100.88904 | 4026 ft | 203 kts | 164° |
| 2026-05-04 01:38 | 29.46506 | -100.88471 | 3750 ft | 196 kts | 164° |
| 2026-05-04 01:38 | 29.45218 | -100.88026 | 3477 ft | 190 kts | 159° |
| 2026-05-04 01:39 | 29.44113 | -100.87259 | 3209 ft | 183 kts | 144° |
| 2026-05-04 01:39 | 29.43236 | -100.86234 | 2947 ft | 175 kts | 134° |
| 2026-05-04 01:39 | 29.42398 | -100.85254 | 2928 ft | 171 kts | 134° |
| 2026-05-04 01:39 | 29.41580 | -100.84290 | 2766 ft | 166 kts | 134° |
| 2026-05-04 01:40 | 29.40800 | -100.83387 | 2459 ft | 147 kts | 135° |
| 2026-05-04 01:40 | 29.40045 | -100.82531 | 2249 ft | 153 kts | 135° |
| 2026-05-04 01:40 | 29.39313 | -100.81698 | 1994 ft | 147 kts | 135° |
| 2026-05-04 01:40 | 29.38595 | -100.80882 | 1735 ft | 145 kts | 135° |
| 2026-05-04 01:41 | 29.37879 | -100.80071 | 1485 ft | 144 kts | 135° |
| 2026-05-04 01:41 | 29.37172 | -100.79269 | 1234 ft | 143 kts | 135° |
| 2026-05-04 01:41 | 29.36491 | -100.78478 | 1085 ft | 134 kts | 134° |
| 2026-05-04 01:41 | 29.35874 | -100.77745 | 1085 ft | 115 kts | 140° |
| 2026-05-04 01:42 | 29.35337 | -100.77209 | 1085 ft | 86 kts | 128° |
| 2026-05-04 01:42 | 29.34879 | -100.76745 | 1085 ft | 83 kts | 165° |
| 2026-05-04 01:42 | 29.34353 | -100.76550 | 1077 ft | 71 kts | 127° |
| 2026-05-04 01:42 | 29.34252 | -100.76124 | 1060 ft | 54 kts | 42° |
| 2026-05-04 01:43 | 29.34642 | -100.75862 | 1083 ft | 71 kts | 35° |
| 2026-05-04 01:43 | 29.34958 | -100.75520 | 1076 ft | 43 kts | 71° |
| 2026-05-04 01:43 | 29.34961 | -100.75342 | 1082 ft | 14 kts | 96° |
| 2026-05-04 01:43 | 29.34947 | -100.75195 | 1083 ft | 32 kts | 95° |
| 2026-05-04 01:44 | 29.34985 | -100.74836 | 1089 ft | 55 kts | 71° |
| 2026-05-04 01:44 | 29.35195 | -100.74585 | 1086 ft | 51 kts | 4° |
| 2026-05-04 01:44 | 29.35645 | -100.74624 | 1098 ft | 68 kts | 338° |
| 2026-05-04 01:44 | 29.36005 | -100.74812 | 1133 ft | 49 kts | 341° |
| 2026-05-04 01:45 | 29.36265 | -100.74978 | 1128 ft | 40 kts | 298° |
| 2026-05-04 01:45 | 29.36324 | -100.75294 | 1093 ft | 42 kts | 274° |
| 2026-05-04 01:45 | 29.36317 | -100.76003 | 1043 ft | 41 kts | 269° |
| 2026-05-04 01:46 | 29.36312 | -100.76301 | 1058 ft | 33 kts | 266° |
| 2026-05-04 01:46 | 29.36263 | -100.76524 | 1074 ft | 25 kts | 226° |
| 2026-05-04 01:46 | 29.36162 | -100.76668 | 1080 ft | 23 kts | 237° |
| 2026-05-04 01:46 | 29.36119 | -100.76835 | 1083 ft | 22 kts | 261° |
| 2026-05-04 01:47 | 29.36094 | -100.77007 | 1085 ft | 22 kts | 261° |
| 2026-05-04 01:47 | 29.36069 | -100.77179 | 1087 ft | 22 kts | 261° |
| 2026-05-04 01:47 | 29.36045 | -100.77365 | 1085 ft | 24 kts | 263° |
| 2026-05-04 01:47 | 29.36012 | -100.77558 | 1085 ft | 25 kts | 245° |
| 2026-05-04 01:48 | 29.35899 | -100.77701 | 1085 ft | 25 kts | 225° |
| 2026-05-04 01:48 | 29.35775 | -100.77843 | 1085 ft | 26 kts | 225° |
| 2026-05-04 01:48 | 29.35649 | -100.77988 | 1085 ft | 26 kts | 225° |
| 2026-05-04 01:48 | 29.35554 | -100.78096 | 1085 ft | 0 kts | 225° |
| 2026-05-04 01:49 | 29.35554 | -100.78097 | 1085 ft | 1 kts | 225° |
| 2026-05-04 01:49 | 29.35553 | -100.78097 | 1085 ft | 0 kts | 225° |
| 2026-05-04 01:49 | 29.35549 | -100.78102 | 1085 ft | 0 kts | 225° |